SU9 weather

CLOSED Ste-Marguerite Water Aerodrome
Sainte-Marguerite-du-Lac-Masson, Quebec, Canada

Public forecast

Using degrees Celsius for public forecast. Weather courtesy of forecast.io.

METAR (pilot weather report)

Closest report is Montreal International (Mirabel) Airport, 21.2 nm (39.3 km) S. Retrieved 2019/09/19 03:00 UTC (17 minutes ago):

CYMX 190300Z 00000KT 25SM FEW250 07/07 A3032 RMK CI2 SLP271

TAF (pilot weather forecast)

Forecast is more than 12 hours old.

Closest forecast is Montreal International (Mirabel) Airport, 21.2 nm (39.3 km) S. Retrieved 2019/09/18 00:42 UTC (1 day ago):

TAF CYMX 182338Z 1900/1924 VRB03KT P6SM FEW250 FM191100 VRB03KT P6SM FEW040 BECMG 1916/1918 22006KT BECMG 1922/1924 VRB03KT RMK NXT FCST BY 190600Z